sensor_id;sensor_type;location;lat;lon;timestamp;P1;durP1;ratioP1;P2;durP2;ratioP2
52918;SDS011;38793;52.690;6.812;2022-11-15T00:00:18;26.70;;;18.80;;
52918;SDS011;38793;52.690;6.812;2022-11-15T00:02:44;25.47;;;17.77;;
52918;SDS011;38793;52.690;6.812;2022-11-15T00:05:09;26.50;;;18.40;;
52918;SDS011;38793;52.690;6.812;2022-11-15T00:07:35;27.33;;;18.93;;
52918;SDS011;38793;52.690;6.812;2022-11-15T00:10:00;23.73;;;18.13;;
52918;SDS011;38793;52.690;6.812;2022-11-15T00:12:27;25.33;;;17.97;;
52918;SDS011;38793;52.690;6.812;2022-11-15T00:14:53;24.33;;;18.33;;
52918;SDS011;38793;52.690;6.812;2022-11-15T00:17:19;26.23;;;18.03;;
52918;SDS011;38793;52.690;6.812;2022-11-15T00:19:44;24.33;;;18.37;;
52918;SDS011;38793;52.690;6.812;2022-11-15T00:22:10;25.60;;;18.70;;
52918;SDS011;38793;52.690;6.812;2022-11-15T00:24:35;24.60;;;17.65;;
52918;SDS011;38793;52.690;6.812;2022-11-15T00:27:01;25.93;;;19.10;;
52918;SDS011;38793;52.690;6.812;2022-11-15T00:29:27;23.90;;;18.80;;
52918;SDS011;38793;52.690;6.812;2022-11-15T00:31:52;28.73;;;19.87;;
52918;SDS011;38793;52.690;6.812;2022-11-15T00:34:18;25.77;;;18.63;;
52918;SDS011;38793;52.690;6.812;2022-11-15T00:36:43;25.97;;;19.33;;
52918;SDS011;38793;52.690;6.812;2022-11-15T00:39:09;30.93;;;19.40;;
52918;SDS011;38793;52.690;6.812;2022-11-15T00:41:34;24.57;;;19.03;;
52918;SDS011;38793;52.690;6.812;2022-11-15T00:44:00;25.40;;;17.73;;
52918;SDS011;38793;52.690;6.812;2022-11-15T00:46:25;28.60;;;19.03;;
52918;SDS011;38793;52.690;6.812;2022-11-15T00:48:51;25.87;;;17.57;;
52918;SDS011;38793;52.690;6.812;2022-11-15T00:51:16;30.13;;;18.77;;
52918;SDS011;38793;52.690;6.812;2022-11-15T00:53:42;22.93;;;17.27;;
52918;SDS011;38793;52.690;6.812;2022-11-15T00:56:07;27.93;;;19.27;;
52918;SDS011;38793;52.690;6.812;2022-11-15T00:58:33;31.77;;;19.17;;
52918;SDS011;38793;52.690;6.812;2022-11-15T01:01:08;26.20;;;18.37;;
52918;SDS011;38793;52.690;6.812;2022-11-15T01:03:36;25.58;;;17.83;;
52918;SDS011;38793;52.690;6.812;2022-11-15T01:06:02;24.55;;;17.90;;
52918;SDS011;38793;52.690;6.812;2022-11-15T01:08:28;26.58;;;17.27;;
52918;SDS011;38793;52.690;6.812;2022-11-15T01:10:54;27.33;;;18.93;;
52918;SDS011;38793;52.690;6.812;2022-11-15T01:13:19;30.63;;;20.20;;
52918;SDS011;38793;52.690;6.812;2022-11-15T01:15:45;27.43;;;17.90;;
52918;SDS011;38793;52.690;6.812;2022-11-15T01:18:10;29.30;;;19.13;;
52918;SDS011;38793;52.690;6.812;2022-11-15T01:20:42;27.47;;;19.50;;
52918;SDS011;38793;52.690;6.812;2022-11-15T01:23:08;29.08;;;19.08;;
52918;SDS011;38793;52.690;6.812;2022-11-15T01:25:34;25.05;;;18.65;;
52918;SDS011;38793;52.690;6.812;2022-11-15T01:28:00;26.60;;;18.00;;
52918;SDS011;38793;52.690;6.812;2022-11-15T01:30:25;26.07;;;18.07;;
52918;SDS011;38793;52.690;6.812;2022-11-15T01:32:51;30.73;;;18.90;;
52918;SDS011;38793;52.690;6.812;2022-11-15T01:35:16;26.97;;;17.63;;
52918;SDS011;38793;52.690;6.812;2022-11-15T01:37:42;27.50;;;17.57;;
52918;SDS011;38793;52.690;6.812;2022-11-15T01:40:08;29.83;;;18.67;;
52918;SDS011;38793;52.690;6.812;2022-11-15T01:42:34;32.38;;;19.75;;
52918;SDS011;38793;52.690;6.812;2022-11-15T01:44:59;31.70;;;20.03;;
52918;SDS011;38793;52.690;6.812;2022-11-15T01:47:26;30.45;;;19.50;;
52918;SDS011;38793;52.690;6.812;2022-11-15T01:50:00;34.35;;;20.13;;
52918;SDS011;38793;52.690;6.812;2022-11-15T01:52:31;37.13;;;22.35;;
52918;SDS011;38793;52.690;6.812;2022-11-15T01:57:31;36.75;;;22.67;;
52918;SDS011;38793;52.690;6.812;2022-11-15T01:59:56;39.87;;;22.30;;
52918;SDS011;38793;52.690;6.812;2022-11-15T02:02:23;39.38;;;22.33;;
52918;SDS011;38793;52.690;6.812;2022-11-15T02:04:49;40.60;;;22.25;;
52918;SDS011;38793;52.690;6.812;2022-11-15T02:07:15;42.57;;;22.57;;
52918;SDS011;38793;52.690;6.812;2022-11-15T02:09:44;43.67;;;23.25;;
52918;SDS011;38793;52.690;6.812;2022-11-15T02:12:11;38.65;;;21.90;;
52918;SDS011;38793;52.690;6.812;2022-11-15T02:14:44;42.15;;;23.95;;
52918;SDS011;38793;52.690;6.812;2022-11-15T02:20:15;42.30;;;24.95;;
52918;SDS011;38793;52.690;6.812;2022-11-15T02:34:32;43.00;;;23.98;;
52918;SDS011;38793;52.690;6.812;2022-11-15T02:37:05;45.15;;;25.60;;
52918;SDS011;38793;52.690;6.812;2022-11-15T02:39:50;47.28;;;27.17;;
52918;SDS011;38793;52.690;6.812;2022-11-15T02:42:26;51.60;;;28.45;;
52918;SDS011;38793;52.690;6.812;2022-11-15T02:45:17;45.97;;;25.42;;
52918;SDS011;38793;52.690;6.812;2022-11-15T02:47:48;48.58;;;28.15;;
52918;SDS011;38793;52.690;6.812;2022-11-15T02:50:17;48.03;;;26.95;;
52918;SDS011;38793;52.690;6.812;2022-11-15T02:52:45;48.75;;;26.98;;
52918;SDS011;38793;52.690;6.812;2022-11-15T02:58:30;43.67;;;27.83;;
52918;SDS011;38793;52.690;6.812;2022-11-15T03:04:09;46.58;;;26.48;;
52918;SDS011;38793;52.690;6.812;2022-11-15T03:06:41;45.28;;;27.33;;
52918;SDS011;38793;52.690;6.812;2022-11-15T03:12:18;50.35;;;28.70;;
52918;SDS011;38793;52.690;6.812;2022-11-15T03:17:26;57.47;;;30.65;;
52918;SDS011;38793;52.690;6.812;2022-11-15T03:19:59;58.55;;;30.60;;
52918;SDS011;38793;52.690;6.812;2022-11-15T03:22:29;55.90;;;31.13;;
52918;SDS011;38793;52.690;6.812;2022-11-15T03:25:00;49.70;;;31.65;;
52918;SDS011;38793;52.690;6.812;2022-11-15T03:27:31;56.28;;;33.05;;
52918;SDS011;38793;52.690;6.812;2022-11-15T03:30:04;54.75;;;33.55;;
52918;SDS011;38793;52.690;6.812;2022-11-15T03:32:32;64.78;;;33.22;;
52918;SDS011;38793;52.690;6.812;2022-11-15T03:35:03;59.63;;;35.17;;
52918;SDS011;38793;52.690;6.812;2022-11-15T03:37:36;55.05;;;35.22;;
52918;SDS011;38793;52.690;6.812;2022-11-15T03:40:16;66.07;;;37.38;;
52918;SDS011;38793;52.690;6.812;2022-11-15T03:42:54;59.83;;;37.25;;
52918;SDS011;38793;52.690;6.812;2022-11-15T03:45:39;63.70;;;35.55;;
52918;SDS011;38793;52.690;6.812;2022-11-15T03:48:13;81.32;;;38.00;;
52918;SDS011;38793;52.690;6.812;2022-11-15T03:50:43;62.95;;;36.35;;
52918;SDS011;38793;52.690;6.812;2022-11-15T03:53:10;63.05;;;37.25;;
52918;SDS011;38793;52.690;6.812;2022-11-15T03:55:37;73.90;;;40.50;;
52918;SDS011;38793;52.690;6.812;2022-11-15T03:58:02;68.47;;;40.90;;
52918;SDS011;38793;52.690;6.812;2022-11-15T04:00:28;68.70;;;40.93;;
52918;SDS011;38793;52.690;6.812;2022-11-15T04:02:54;70.70;;;40.33;;
52918;SDS011;38793;52.690;6.812;2022-11-15T04:05:19;73.97;;;38.53;;
52918;SDS011;38793;52.690;6.812;2022-11-15T04:07:45;76.97;;;40.63;;
52918;SDS011;38793;52.690;6.812;2022-11-15T04:10:11;62.50;;;37.60;;
52918;SDS011;38793;52.690;6.812;2022-11-15T04:15:09;66.72;;;36.80;;
52918;SDS011;38793;52.690;6.812;2022-11-15T04:17:41;68.63;;;37.85;;
52918;SDS011;38793;52.690;6.812;2022-11-15T04:20:08;64.90;;;37.38;;
52918;SDS011;38793;52.690;6.812;2022-11-15T04:23:01;61.33;;;34.38;;
52918;SDS011;38793;52.690;6.812;2022-11-15T04:25:47;59.67;;;33.83;;
52918;SDS011;38793;52.690;6.812;2022-11-15T04:28:15;57.45;;;34.65;;
52918;SDS011;38793;52.690;6.812;2022-11-15T04:30:41;59.10;;;34.30;;
52918;SDS011;38793;52.690;6.812;2022-11-15T04:33:06;55.90;;;34.23;;
52918;SDS011;38793;52.690;6.812;2022-11-15T04:35:32;54.33;;;31.83;;
52918;SDS011;38793;52.690;6.812;2022-11-15T04:37:58;65.77;;;35.10;;
52918;SDS011;38793;52.690;6.812;2022-11-15T04:40:24;55.13;;;32.20;;
52918;SDS011;38793;52.690;6.812;2022-11-15T04:42:49;53.07;;;32.97;;
52918;SDS011;38793;52.690;6.812;2022-11-15T04:45:15;58.17;;;33.80;;
52918;SDS011;38793;52.690;6.812;2022-11-15T04:47:42;60.47;;;35.27;;
52918;SDS011;38793;52.690;6.812;2022-11-15T04:50:09;51.50;;;31.73;;
52918;SDS011;38793;52.690;6.812;2022-11-15T04:52:38;56.60;;;33.22;;
52918;SDS011;38793;52.690;6.812;2022-11-15T04:55:15;56.60;;;30.40;;
52918;SDS011;38793;52.690;6.812;2022-11-15T04:57:41;47.83;;;28.48;;
52918;SDS011;38793;52.690;6.812;2022-11-15T05:00:08;47.22;;;28.67;;
52918;SDS011;38793;52.690;6.812;2022-11-15T05:02:38;53.67;;;29.55;;
52918;SDS011;38793;52.690;6.812;2022-11-15T05:05:23;46.35;;;29.83;;
52918;SDS011;38793;52.690;6.812;2022-11-15T05:07:49;46.63;;;28.30;;
52918;SDS011;38793;52.690;6.812;2022-11-15T05:10:14;49.15;;;32.10;;
52918;SDS011;38793;52.690;6.812;2022-11-15T05:12:40;55.72;;;31.83;;
52918;SDS011;38793;52.690;6.812;2022-11-15T05:15:06;48.80;;;31.30;;
52918;SDS011;38793;52.690;6.812;2022-11-15T05:17:31;51.20;;;31.45;;
52918;SDS011;38793;52.690;6.812;2022-11-15T05:19:57;51.00;;;32.47;;
52918;SDS011;38793;52.690;6.812;2022-11-15T05:22:23;46.63;;;29.90;;
52918;SDS011;38793;52.690;6.812;2022-11-15T05:24:48;43.97;;;29.00;;
52918;SDS011;38793;52.690;6.812;2022-11-15T05:27:14;40.80;;;26.60;;
52918;SDS011;38793;52.690;6.812;2022-11-15T05:29:39;44.27;;;28.97;;
52918;SDS011;38793;52.690;6.812;2022-11-15T05:32:05;41.53;;;26.73;;
52918;SDS011;38793;52.690;6.812;2022-11-15T05:34:33;46.72;;;27.67;;
52918;SDS011;38793;52.690;6.812;2022-11-15T05:36:58;35.80;;;27.73;;
52918;SDS011;38793;52.690;6.812;2022-11-15T05:39:24;43.13;;;27.15;;
52918;SDS011;38793;52.690;6.812;2022-11-15T05:44:22;41.08;;;26.05;;
52918;SDS011;38793;52.690;6.812;2022-11-15T05:46:48;38.33;;;26.02;;
52918;SDS011;38793;52.690;6.812;2022-11-15T05:49:18;36.15;;;25.15;;
52918;SDS011;38793;52.690;6.812;2022-11-15T05:51:47;37.55;;;25.42;;
52918;SDS011;38793;52.690;6.812;2022-11-15T05:54:14;40.83;;;26.67;;
52918;SDS011;38793;52.690;6.812;2022-11-15T05:56:41;38.45;;;25.75;;
52918;SDS011;38793;52.690;6.812;2022-11-15T05:59:07;34.88;;;24.40;;
52918;SDS011;38793;52.690;6.812;2022-11-15T06:01:34;37.10;;;24.55;;
52918;SDS011;38793;52.690;6.812;2022-11-15T06:03:59;33.88;;;22.00;;
52918;SDS011;38793;52.690;6.812;2022-11-15T06:06:27;31.13;;;21.53;;
52918;SDS011;38793;52.690;6.812;2022-11-15T06:08:53;31.80;;;22.13;;
52918;SDS011;38793;52.690;6.812;2022-11-15T06:11:18;29.97;;;21.77;;
52918;SDS011;38793;52.690;6.812;2022-11-15T06:13:44;29.38;;;21.70;;
52918;SDS011;38793;52.690;6.812;2022-11-15T06:16:10;30.73;;;21.57;;
52918;SDS011;38793;52.690;6.812;2022-11-15T06:18:35;32.63;;;21.42;;
52918;SDS011;38793;52.690;6.812;2022-11-15T06:21:01;31.55;;;20.98;;
52918;SDS011;38793;52.690;6.812;2022-11-15T06:23:28;31.55;;;19.38;;
52918;SDS011;38793;52.690;6.812;2022-11-15T06:25:59;30.73;;;20.92;;
52918;SDS011;38793;52.690;6.812;2022-11-15T06:28:32;29.15;;;19.98;;
52918;SDS011;38793;52.690;6.812;2022-11-15T06:31:05;30.27;;;21.00;;
52918;SDS011;38793;52.690;6.812;2022-11-15T06:33:32;29.52;;;21.13;;
52918;SDS011;38793;52.690;6.812;2022-11-15T06:36:05;28.33;;;20.83;;
52918;SDS011;38793;52.690;6.812;2022-11-15T06:38:33;25.08;;;19.42;;
52918;SDS011;38793;52.690;6.812;2022-11-15T06:41:06;31.27;;;18.80;;
52918;SDS011;38793;52.690;6.812;2022-11-15T06:43:33;22.98;;;19.17;;
52918;SDS011;38793;52.690;6.812;2022-11-15T06:46:00;29.13;;;21.67;;
52918;SDS011;38793;52.690;6.812;2022-11-15T06:48:26;27.58;;;20.05;;
52918;SDS011;38793;52.690;6.812;2022-11-15T06:50:53;27.70;;;18.88;;
52918;SDS011;38793;52.690;6.812;2022-11-15T06:53:19;26.17;;;19.27;;
52918;SDS011;38793;52.690;6.812;2022-11-15T06:55:45;28.43;;;19.43;;
52918;SDS011;38793;52.690;6.812;2022-11-15T06:58:10;25.20;;;18.27;;
52918;SDS011;38793;52.690;6.812;2022-11-15T07:00:36;24.70;;;19.23;;
52918;SDS011;38793;52.690;6.812;2022-11-15T07:03:02;33.80;;;20.67;;
52918;SDS011;38793;52.690;6.812;2022-11-15T07:05:28;23.88;;;19.50;;
52918;SDS011;38793;52.690;6.812;2022-11-15T07:07:54;31.20;;;19.98;;
52918;SDS011;38793;52.690;6.812;2022-11-15T07:10:21;26.83;;;19.73;;
52918;SDS011;38793;52.690;6.812;2022-11-15T07:12:49;30.00;;;20.92;;
52918;SDS011;38793;52.690;6.812;2022-11-15T07:15:16;31.42;;;20.27;;
52918;SDS011;38793;52.690;6.812;2022-11-15T07:20:07;33.08;;;24.15;;
52918;SDS011;38793;52.690;6.812;2022-11-15T07:22:33;32.90;;;25.83;;
52918;SDS011;38793;52.690;6.812;2022-11-15T07:24:59;34.13;;;24.80;;
52918;SDS011;38793;52.690;6.812;2022-11-15T07:27:25;36.53;;;25.67;;
52918;SDS011;38793;52.690;6.812;2022-11-15T07:29:50;30.73;;;24.23;;
52918;SDS011;38793;52.690;6.812;2022-11-15T07:32:16;32.93;;;26.43;;
52918;SDS011;38793;52.690;6.812;2022-11-15T07:34:41;36.65;;;26.20;;
52918;SDS011;38793;52.690;6.812;2022-11-15T07:37:07;34.00;;;25.70;;
52918;SDS011;38793;52.690;6.812;2022-11-15T07:39:32;33.17;;;23.48;;
52918;SDS011;38793;52.690;6.812;2022-11-15T07:41:58;38.30;;;25.50;;
52918;SDS011;38793;52.690;6.812;2022-11-15T07:44:43;29.63;;;23.02;;
52918;SDS011;38793;52.690;6.812;2022-11-15T07:47:08;32.97;;;22.00;;
52918;SDS011;38793;52.690;6.812;2022-11-15T07:49:34;28.67;;;21.27;;
52918;SDS011;38793;52.690;6.812;2022-11-15T07:51:59;30.20;;;21.33;;
52918;SDS011;38793;52.690;6.812;2022-11-15T07:54:25;31.50;;;23.60;;
52918;SDS011;38793;52.690;6.812;2022-11-15T07:56:51;27.83;;;20.83;;
52918;SDS011;38793;52.690;6.812;2022-11-15T07:59:16;29.77;;;22.47;;
52918;SDS011;38793;52.690;6.812;2022-11-15T08:01:42;30.57;;;21.87;;
52918;SDS011;38793;52.690;6.812;2022-11-15T08:04:07;28.67;;;22.47;;
52918;SDS011;38793;52.690;6.812;2022-11-15T08:06:34;29.17;;;22.55;;
52918;SDS011;38793;52.690;6.812;2022-11-15T08:09:00;32.87;;;21.23;;
52918;SDS011;38793;52.690;6.812;2022-11-15T08:11:26;28.67;;;21.47;;
52918;SDS011;38793;52.690;6.812;2022-11-15T08:13:51;32.80;;;23.13;;
52918;SDS011;38793;52.690;6.812;2022-11-15T08:16:17;25.83;;;22.03;;
52918;SDS011;38793;52.690;6.812;2022-11-15T08:18:42;30.43;;;21.23;;
52918;SDS011;38793;52.690;6.812;2022-11-15T08:21:08;32.20;;;23.63;;
52918;SDS011;38793;52.690;6.812;2022-11-15T08:23:38;30.75;;;22.38;;
52918;SDS011;38793;52.690;6.812;2022-11-15T08:26:03;30.10;;;22.70;;
52918;SDS011;38793;52.690;6.812;2022-11-15T08:30:55;29.10;;;22.13;;
52918;SDS011;38793;52.690;6.812;2022-11-15T08:33:22;29.05;;;21.67;;
52918;SDS011;38793;52.690;6.812;2022-11-15T08:35:47;29.88;;;22.98;;
52918;SDS011;38793;52.690;6.812;2022-11-15T08:38:13;26.35;;;22.52;;
52918;SDS011;38793;52.690;6.812;2022-11-15T08:40:39;25.23;;;22.38;;
52918;SDS011;38793;52.690;6.812;2022-11-15T08:43:05;29.85;;;22.95;;
52918;SDS011;38793;52.690;6.812;2022-11-15T08:45:31;22.98;;;20.60;;
52918;SDS011;38793;52.690;6.812;2022-11-15T08:48:00;24.13;;;21.27;;
52918;SDS011;38793;52.690;6.812;2022-11-15T08:50:26;24.05;;;21.38;;
52918;SDS011;38793;52.690;6.812;2022-11-15T08:52:52;24.70;;;20.20;;
52918;SDS011;38793;52.690;6.812;2022-11-15T08:55:18;22.40;;;19.90;;
52918;SDS011;38793;52.690;6.812;2022-11-15T08:57:43;25.83;;;20.27;;
52918;SDS011;38793;52.690;6.812;2022-11-15T09:00:09;23.23;;;19.30;;
52918;SDS011;38793;52.690;6.812;2022-11-15T09:02:37;22.65;;;20.17;;
52918;SDS011;38793;52.690;6.812;2022-11-15T09:05:04;20.73;;;18.40;;
52918;SDS011;38793;52.690;6.812;2022-11-15T09:09:56;20.55;;;18.35;;
52918;SDS011;38793;52.690;6.812;2022-11-15T09:12:22;20.40;;;18.27;;
52918;SDS011;38793;52.690;6.812;2022-11-15T09:14:48;21.15;;;18.92;;
52918;SDS011;38793;52.690;6.812;2022-11-15T09:17:13;19.93;;;17.90;;
52918;SDS011;38793;52.690;6.812;2022-11-15T09:19:39;22.63;;;19.13;;
52918;SDS011;38793;52.690;6.812;2022-11-15T09:22:07;22.57;;;19.40;;
52918;SDS011;38793;52.690;6.812;2022-11-15T09:24:33;24.02;;;19.60;;
52918;SDS011;38793;52.690;6.812;2022-11-15T09:26:59;27.98;;;21.70;;
52918;SDS011;38793;52.690;6.812;2022-11-15T09:29:25;24.52;;;20.40;;
52918;SDS011;38793;52.690;6.812;2022-11-15T09:31:54;21.83;;;19.52;;
52918;SDS011;38793;52.690;6.812;2022-11-15T09:34:19;25.58;;;21.50;;
52918;SDS011;38793;52.690;6.812;2022-11-15T09:36:46;26.35;;;22.77;;
52918;SDS011;38793;52.690;6.812;2022-11-15T09:39:11;29.38;;;24.95;;
52918;SDS011;38793;52.690;6.812;2022-11-15T09:44:31;37.25;;;25.83;;
52918;SDS011;38793;52.690;6.812;2022-11-15T09:49:57;30.17;;;25.35;;
52918;SDS011;38793;52.690;6.812;2022-11-15T09:52:25;27.88;;;24.50;;
52918;SDS011;38793;52.690;6.812;2022-11-15T09:54:51;27.27;;;24.13;;
52918;SDS011;38793;52.690;6.812;2022-11-15T09:57:28;27.48;;;23.70;;
52918;SDS011;38793;52.690;6.812;2022-11-15T10:00:38;31.75;;;21.70;;
52918;SDS011;38793;52.690;6.812;2022-11-15T10:03:09;23.92;;;21.15;;
52918;SDS011;38793;52.690;6.812;2022-11-15T10:05:45;22.85;;;19.35;;
52918;SDS011;38793;52.690;6.812;2022-11-15T10:10:50;20.33;;;18.20;;
52918;SDS011;38793;52.690;6.812;2022-11-15T10:13:22;20.42;;;18.27;;
52918;SDS011;38793;52.690;6.812;2022-11-15T10:15:49;22.48;;;19.35;;
52918;SDS011;38793;52.690;6.812;2022-11-15T10:18:17;19.25;;;17.25;;
52918;SDS011;38793;52.690;6.812;2022-11-15T10:20:58;20.17;;;17.48;;
52918;SDS011;38793;52.690;6.812;2022-11-15T10:23:27;17.45;;;15.52;;
52918;SDS011;38793;52.690;6.812;2022-11-15T10:25:58;17.27;;;15.45;;
52918;SDS011;38793;52.690;6.812;2022-11-15T10:28:28;24.20;;;15.52;;
52918;SDS011;38793;52.690;6.812;2022-11-15T10:30:58;15.00;;;13.50;;
52918;SDS011;38793;52.690;6.812;2022-11-15T10:36:14;16.83;;;12.68;;
52918;SDS011;38793;52.690;6.812;2022-11-15T10:41:21;11.57;;;10.38;;
52918;SDS011;38793;52.690;6.812;2022-11-15T10:44:10;10.02;;;9.13;;
52918;SDS011;38793;52.690;6.812;2022-11-15T10:46:46;10.13;;;9.07;;
52918;SDS011;38793;52.690;6.812;2022-11-15T10:49:33;15.10;;;9.98;;
52918;SDS011;38793;52.690;6.812;2022-11-15T10:54:41;11.25;;;9.52;;
52918;SDS011;38793;52.690;6.812;2022-11-15T10:57:16;10.48;;;9.18;;
52918;SDS011;38793;52.690;6.812;2022-11-15T10:59:48;9.40;;;7.53;;
52918;SDS011;38793;52.690;6.812;2022-11-15T11:02:30;10.57;;;8.60;;
52918;SDS011;38793;52.690;6.812;2022-11-15T11:04:58;9.32;;;6.55;;
52918;SDS011;38793;52.690;6.812;2022-11-15T11:07:28;8.13;;;7.10;;
52918;SDS011;38793;52.690;6.812;2022-11-15T11:10:00;8.15;;;6.70;;
52918;SDS011;38793;52.690;6.812;2022-11-15T11:12:33;10.32;;;6.47;;
52918;SDS011;38793;52.690;6.812;2022-11-15T11:14:59;11.15;;;5.43;;
52918;SDS011;38793;52.690;6.812;2022-11-15T11:20:40;7.50;;;4.40;;
52918;SDS011;38793;52.690;6.812;2022-11-15T11:26:19;6.03;;;3.83;;
52918;SDS011;38793;52.690;6.812;2022-11-15T11:42:26;5.63;;;3.08;;
52918;SDS011;38793;52.690;6.812;2022-11-15T11:45:05;4.85;;;2.60;;
52918;SDS011;38793;52.690;6.812;2022-11-15T11:47:39;4.80;;;2.72;;
52918;SDS011;38793;52.690;6.812;2022-11-15T11:50:16;7.95;;;3.15;;
52918;SDS011;38793;52.690;6.812;2022-11-15T11:53:05;4.93;;;2.28;;
52918;SDS011;38793;52.690;6.812;2022-11-15T11:55:41;4.45;;;2.00;;
52918;SDS011;38793;52.690;6.812;2022-11-15T12:00:53;3.05;;;1.88;;
52918;SDS011;38793;52.690;6.812;2022-11-15T12:03:55;2.65;;;1.75;;
52918;SDS011;38793;52.690;6.812;2022-11-15T12:09:06;3.40;;;1.52;;
52918;SDS011;38793;52.690;6.812;2022-11-15T12:11:43;4.85;;;2.50;;
52918;SDS011;38793;52.690;6.812;2022-11-15T12:14:40;4.40;;;2.20;;
52918;SDS011;38793;52.690;6.812;2022-11-15T12:17:24;3.63;;;2.22;;
52918;SDS011;38793;52.690;6.812;2022-11-15T12:19:52;4.28;;;2.15;;
52918;SDS011;38793;52.690;6.812;2022-11-15T12:22:23;3.45;;;1.88;;
52918;SDS011;38793;52.690;6.812;2022-11-15T12:27:53;3.30;;;1.55;;
52918;SDS011;38793;52.690;6.812;2022-11-15T12:33:28;3.13;;;1.15;;
52918;SDS011;38793;52.690;6.812;2022-11-15T12:38:51;4.63;;;0.95;;
52918;SDS011;38793;52.690;6.812;2022-11-15T12:41:19;3.35;;;0.80;;
52918;SDS011;38793;52.690;6.812;2022-11-15T12:43:46;2.80;;;0.82;;
52918;SDS011;38793;52.690;6.812;2022-11-15T12:49:09;1.55;;;0.88;;
52918;SDS011;38793;52.690;6.812;2022-11-15T13:02:18;2.00;;;0.43;;
52918;SDS011;38793;52.690;6.812;2022-11-15T13:04:44;2.63;;;0.90;;
52918;SDS011;38793;52.690;6.812;2022-11-15T13:07:10;3.78;;;1.02;;
52918;SDS011;38793;52.690;6.812;2022-11-15T13:22:42;3.37;;;1.13;;
52918;SDS011;38793;52.690;6.812;2022-11-15T13:30:52;2.45;;;0.93;;
52918;SDS011;38793;52.690;6.812;2022-11-15T13:33:23;1.65;;;0.90;;
52918;SDS011;38793;52.690;6.812;2022-11-15T13:35:54;3.33;;;1.10;;
52918;SDS011;38793;52.690;6.812;2022-11-15T13:40:58;1.45;;;1.05;;
52918;SDS011;38793;52.690;6.812;2022-11-15T13:48:43;5.88;;;2.17;;
52918;SDS011;38793;52.690;6.812;2022-11-15T13:51:16;2.10;;;1.90;;
52918;SDS011;38793;52.690;6.812;2022-11-15T13:53:56;2.85;;;2.65;;
52918;SDS011;38793;52.690;6.812;2022-11-15T13:56:26;3.10;;;2.03;;
52918;SDS011;38793;52.690;6.812;2022-11-15T13:58:53;2.38;;;2.20;;
52918;SDS011;38793;52.690;6.812;2022-11-15T14:01:20;2.63;;;2.35;;
52918;SDS011;38793;52.690;6.812;2022-11-15T14:03:50;2.78;;;2.58;;
52918;SDS011;38793;52.690;6.812;2022-11-15T14:06:20;2.20;;;2.10;;
52918;SDS011;38793;52.690;6.812;2022-11-15T14:08:58;3.78;;;2.38;;
52918;SDS011;38793;52.690;6.812;2022-11-15T14:11:26;4.43;;;2.33;;
52918;SDS011;38793;52.690;6.812;2022-11-15T14:17:18;2.92;;;2.72;;
52918;SDS011;38793;52.690;6.812;2022-11-15T14:24:44;2.45;;;2.25;;
52918;SDS011;38793;52.690;6.812;2022-11-15T14:27:21;2.67;;;2.47;;
52918;SDS011;38793;52.690;6.812;2022-11-15T14:29:50;8.27;;;2.72;;
52918;SDS011;38793;52.690;6.812;2022-11-15T14:32:17;5.75;;;2.90;;
52918;SDS011;38793;52.690;6.812;2022-11-15T14:34:48;3.17;;;2.42;;
52918;SDS011;38793;52.690;6.812;2022-11-15T14:39:59;3.67;;;2.50;;
52918;SDS011;38793;52.690;6.812;2022-11-15T14:44:51;102.90;;;11.02;;
52918;SDS011;38793;52.690;6.812;2022-11-15T14:47:17;3.78;;;2.83;;
52918;SDS011;38793;52.690;6.812;2022-11-15T14:49:43;4.50;;;2.60;;
52918;SDS011;38793;52.690;6.812;2022-11-15T14:54:54;3.22;;;2.63;;
52918;SDS011;38793;52.690;6.812;2022-11-15T14:57:20;2.70;;;2.50;;
52918;SDS011;38793;52.690;6.812;2022-11-15T14:59:46;4.15;;;2.75;;
52918;SDS011;38793;52.690;6.812;2022-11-15T15:02:14;2.83;;;2.67;;
52918;SDS011;38793;52.690;6.812;2022-11-15T15:04:46;3.67;;;2.75;;
52918;SDS011;38793;52.690;6.812;2022-11-15T15:09:38;4.38;;;2.90;;
52918;SDS011;38793;52.690;6.812;2022-11-15T15:12:05;3.95;;;2.38;;
52918;SDS011;38793;52.690;6.812;2022-11-15T15:14:37;3.40;;;1.60;;
52918;SDS011;38793;52.690;6.812;2022-11-15T15:17:02;4.20;;;2.43;;
52918;SDS011;38793;52.690;6.812;2022-11-15T15:19:28;1.90;;;1.42;;
52918;SDS011;38793;52.690;6.812;2022-11-15T15:21:54;1.63;;;1.37;;
52918;SDS011;38793;52.690;6.812;2022-11-15T15:24:20;2.33;;;1.50;;
52918;SDS011;38793;52.690;6.812;2022-11-15T15:26:45;5.63;;;1.73;;
52918;SDS011;38793;52.690;6.812;2022-11-15T15:29:11;2.70;;;1.03;;
52918;SDS011;38793;52.690;6.812;2022-11-15T15:31:36;3.53;;;1.70;;
52918;SDS011;38793;52.690;6.812;2022-11-15T15:34:02;1.70;;;1.08;;
52918;SDS011;38793;52.690;6.812;2022-11-15T15:36:27;3.65;;;0.60;;
52918;SDS011;38793;52.690;6.812;2022-11-15T15:38:53;1.30;;;0.60;;
52918;SDS011;38793;52.690;6.812;2022-11-15T15:41:18;1.90;;;1.10;;
52918;SDS011;38793;52.690;6.812;2022-11-15T15:43:44;1.40;;;0.63;;
52918;SDS011;38793;52.690;6.812;2022-11-15T15:46:11;3.25;;;1.05;;
52918;SDS011;38793;52.690;6.812;2022-11-15T15:48:38;5.00;;;1.38;;
52918;SDS011;38793;52.690;6.812;2022-11-15T15:51:04;3.27;;;1.30;;
52918;SDS011;38793;52.690;6.812;2022-11-15T15:55:56;4.60;;;0.80;;
52918;SDS011;38793;52.690;6.812;2022-11-15T15:58:22;2.15;;;0.82;;
52918;SDS011;38793;52.690;6.812;2022-11-15T16:00:48;3.75;;;1.27;;
52918;SDS011;38793;52.690;6.812;2022-11-15T16:03:13;3.10;;;0.80;;
52918;SDS011;38793;52.690;6.812;2022-11-15T16:05:39;1.10;;;0.77;;
52918;SDS011;38793;52.690;6.812;2022-11-15T16:08:05;2.72;;;0.85;;
52918;SDS011;38793;52.690;6.812;2022-11-15T16:10:31;18.77;;;2.80;;
52918;SDS011;38793;52.690;6.812;2022-11-15T16:13:02;13.93;;;1.45;;
52918;SDS011;38793;52.690;6.812;2022-11-15T16:15:29;3.90;;;0.70;;
52918;SDS011;38793;52.690;6.812;2022-11-15T16:17:56;2.88;;;0.50;;
52918;SDS011;38793;52.690;6.812;2022-11-15T16:20:30;3.35;;;0.85;;
52918;SDS011;38793;52.690;6.812;2022-11-15T16:22:58;3.10;;;0.77;;
52918;SDS011;38793;52.690;6.812;2022-11-15T16:27:49;3.05;;;0.50;;
52918;SDS011;38793;52.690;6.812;2022-11-15T16:30:16;2.60;;;0.60;;
52918;SDS011;38793;52.690;6.812;2022-11-15T16:32:43;2.47;;;0.75;;
52918;SDS011;38793;52.690;6.812;2022-11-15T16:35:10;1.57;;;0.73;;
52918;SDS011;38793;52.690;6.812;2022-11-15T16:37:39;3.50;;;1.08;;
52918;SDS011;38793;52.690;6.812;2022-11-15T16:40:27;4.40;;;0.80;;
52918;SDS011;38793;52.690;6.812;2022-11-15T16:42:56;1.02;;;0.50;;
52918;SDS011;38793;52.690;6.812;2022-11-15T16:45:23;3.70;;;0.60;;
52918;SDS011;38793;52.690;6.812;2022-11-15T16:47:50;3.03;;;0.60;;
52918;SDS011;38793;52.690;6.812;2022-11-15T16:50:34;1.10;;;0.50;;
52918;SDS011;38793;52.690;6.812;2022-11-15T16:53:05;5.72;;;0.80;;
52918;SDS011;38793;52.690;6.812;2022-11-15T16:55:31;3.57;;;0.40;;
52918;SDS011;38793;52.690;6.812;2022-11-15T16:57:57;1.95;;;0.70;;
52918;SDS011;38793;52.690;6.812;2022-11-15T17:00:22;1.17;;;0.50;;
52918;SDS011;38793;52.690;6.812;2022-11-15T17:02:49;3.05;;;0.45;;
52918;SDS011;38793;52.690;6.812;2022-11-15T17:05:16;1.92;;;0.85;;
52918;SDS011;38793;52.690;6.812;2022-11-15T17:07:45;2.17;;;0.50;;
52918;SDS011;38793;52.690;6.812;2022-11-15T17:10:18;2.90;;;0.80;;
52918;SDS011;38793;52.690;6.812;2022-11-15T17:12:48;1.52;;;0.63;;